sensor_id;sensor_type;location;lat;lon;timestamp;temperature;humidity
9223;DHT22;7557;51.698;3.942;2023-08-12T00:01:52;21.60;99.90
9223;DHT22;7557;51.698;3.942;2023-08-12T00:04:21;21.60;99.90
9223;DHT22;7557;51.698;3.942;2023-08-12T00:06:48;21.60;99.90
9223;DHT22;7557;51.698;3.942;2023-08-12T00:09:15;21.60;99.90
9223;DHT22;7557;51.698;3.942;2023-08-12T00:11:43;21.60;99.90
9223;DHT22;7557;51.698;3.942;2023-08-12T00:14:10;21.60;99.90
9223;DHT22;7557;51.698;3.942;2023-08-12T00:16:38;21.60;99.90
9223;DHT22;7557;51.698;3.942;2023-08-12T00:19:05;21.60;99.90
9223;DHT22;7557;51.698;3.942;2023-08-12T00:21:35;21.60;99.90
9223;DHT22;7557;51.698;3.942;2023-08-12T00:24:02;21.70;99.90
9223;DHT22;7557;51.698;3.942;2023-08-12T00:26:30;21.70;99.90
9223;DHT22;7557;51.698;3.942;2023-08-12T00:28:57;21.70;99.90
9223;DHT22;7557;51.698;3.942;2023-08-12T00:31:24;21.70;99.90
9223;DHT22;7557;51.698;3.942;2023-08-12T00:33:51;21.70;99.90
9223;DHT22;7557;51.698;3.942;2023-08-12T00:36:18;21.70;99.90
9223;DHT22;7557;51.698;3.942;2023-08-12T00:38:47;21.70;99.90
9223;DHT22;7557;51.698;3.942;2023-08-12T00:41:15;21.70;99.90
9223;DHT22;7557;51.698;3.942;2023-08-12T00:43:42;21.70;99.90
9223;DHT22;7557;51.698;3.942;2023-08-12T00:49:21;21.70;99.90
9223;DHT22;7557;51.698;3.942;2023-08-12T00:51:49;21.70;99.90
9223;DHT22;7557;51.698;3.942;2023-08-12T00:54:18;21.70;99.90
9223;DHT22;7557;51.698;3.942;2023-08-12T00:56:46;21.70;99.90
9223;DHT22;7557;51.698;3.942;2023-08-12T00:59:13;21.70;99.90
9223;DHT22;7557;51.698;3.942;2023-08-12T01:01:41;21.70;99.90
9223;DHT22;7557;51.698;3.942;2023-08-12T01:04:09;21.70;99.90
9223;DHT22;7557;51.698;3.942;2023-08-12T01:06:36;21.70;99.90
9223;DHT22;7557;51.698;3.942;2023-08-12T01:09:04;21.60;99.90
9223;DHT22;7557;51.698;3.942;2023-08-12T01:11:40;21.60;99.90
9223;DHT22;7557;51.698;3.942;2023-08-12T01:14:14;21.70;99.90
9223;DHT22;7557;51.698;3.942;2023-08-12T01:16:46;21.70;99.90
9223;DHT22;7557;51.698;3.942;2023-08-12T01:19:26;21.70;99.90
9223;DHT22;7557;51.698;3.942;2023-08-12T01:22:00;21.70;99.90
9223;DHT22;7557;51.698;3.942;2023-08-12T01:24:34;21.70;99.90
9223;DHT22;7557;51.698;3.942;2023-08-12T01:27:02;21.70;99.90
9223;DHT22;7557;51.698;3.942;2023-08-12T01:29:30;21.60;99.90
9223;DHT22;7557;51.698;3.942;2023-08-12T01:32:05;21.60;99.90
9223;DHT22;7557;51.698;3.942;2023-08-12T01:34:39;21.60;99.90
9223;DHT22;7557;51.698;3.942;2023-08-12T01:37:11;21.60;99.90
9223;DHT22;7557;51.698;3.942;2023-08-12T01:39:43;21.60;99.90
9223;DHT22;7557;51.698;3.942;2023-08-12T01:42:12;21.60;99.90
9223;DHT22;7557;51.698;3.942;2023-08-12T01:44:40;21.60;99.90
9223;DHT22;7557;51.698;3.942;2023-08-12T01:47:08;21.70;99.90
9223;DHT22;7557;51.698;3.942;2023-08-12T01:49:36;21.60;99.90
9223;DHT22;7557;51.698;3.942;2023-08-12T01:52:03;21.60;99.90
9223;DHT22;7557;51.698;3.942;2023-08-12T01:54:31;21.60;99.90
9223;DHT22;7557;51.698;3.942;2023-08-12T01:57:02;21.70;99.90
9223;DHT22;7557;51.698;3.942;2023-08-12T01:59:31;21.70;99.90
9223;DHT22;7557;51.698;3.942;2023-08-12T02:01:58;21.70;99.90
9223;DHT22;7557;51.698;3.942;2023-08-12T02:04:26;21.80;99.90
9223;DHT22;7557;51.698;3.942;2023-08-12T02:06:53;21.80;99.90
9223;DHT22;7557;51.698;3.942;2023-08-12T02:09:21;21.80;99.90
9223;DHT22;7557;51.698;3.942;2023-08-12T02:11:49;21.80;99.90
9223;DHT22;7557;51.698;3.942;2023-08-12T02:14:17;21.80;99.90
9223;DHT22;7557;51.698;3.942;2023-08-12T02:16:44;21.80;99.90
9223;DHT22;7557;51.698;3.942;2023-08-12T02:19:12;21.80;99.90
9223;DHT22;7557;51.698;3.942;2023-08-12T02:21:39;21.80;99.90
9223;DHT22;7557;51.698;3.942;2023-08-12T02:24:07;21.80;99.90
9223;DHT22;7557;51.698;3.942;2023-08-12T02:26:34;21.70;99.90
9223;DHT22;7557;51.698;3.942;2023-08-12T02:29:01;21.70;99.90
9223;DHT22;7557;51.698;3.942;2023-08-12T02:31:30;21.70;99.90
9223;DHT22;7557;51.698;3.942;2023-08-12T02:33:57;21.70;99.90
9223;DHT22;7557;51.698;3.942;2023-08-12T02:36:24;21.70;99.90
9223;DHT22;7557;51.698;3.942;2023-08-12T02:38:52;21.80;99.90
9223;DHT22;7557;51.698;3.942;2023-08-12T02:41:19;21.70;99.90
9223;DHT22;7557;51.698;3.942;2023-08-12T02:43:46;21.70;99.90
9223;DHT22;7557;51.698;3.942;2023-08-12T02:46:14;21.70;99.90
9223;DHT22;7557;51.698;3.942;2023-08-12T02:48:43;21.80;99.90
9223;DHT22;7557;51.698;3.942;2023-08-12T02:51:10;21.80;99.90
9223;DHT22;7557;51.698;3.942;2023-08-12T02:53:37;21.80;99.90
9223;DHT22;7557;51.698;3.942;2023-08-12T02:56:04;21.80;99.90
9223;DHT22;7557;51.698;3.942;2023-08-12T02:58:32;21.80;99.90
9223;DHT22;7557;51.698;3.942;2023-08-12T03:01:00;21.80;99.90
9223;DHT22;7557;51.698;3.942;2023-08-12T03:03:29;21.80;99.90
9223;DHT22;7557;51.698;3.942;2023-08-12T03:05:58;21.80;99.90
9223;DHT22;7557;51.698;3.942;2023-08-12T03:08:25;21.80;99.90
9223;DHT22;7557;51.698;3.942;2023-08-12T03:10:58;21.80;99.90
9223;DHT22;7557;51.698;3.942;2023-08-12T03:13:26;21.80;99.90
9223;DHT22;7557;51.698;3.942;2023-08-12T03:15:53;21.70;99.90
9223;DHT22;7557;51.698;3.942;2023-08-12T03:18:21;21.70;99.90
9223;DHT22;7557;51.698;3.942;2023-08-12T03:20:48;21.70;99.90
9223;DHT22;7557;51.698;3.942;2023-08-12T03:23:17;21.70;99.90
9223;DHT22;7557;51.698;3.942;2023-08-12T03:25:46;21.70;99.90
9223;DHT22;7557;51.698;3.942;2023-08-12T03:28:13;21.70;99.90
9223;DHT22;7557;51.698;3.942;2023-08-12T03:30:41;21.70;99.90
9223;DHT22;7557;51.698;3.942;2023-08-12T03:33:08;21.70;99.90
9223;DHT22;7557;51.698;3.942;2023-08-12T03:35:35;21.70;99.90
9223;DHT22;7557;51.698;3.942;2023-08-12T03:38:03;21.70;99.90
9223;DHT22;7557;51.698;3.942;2023-08-12T03:40:32;21.70;99.90
9223;DHT22;7557;51.698;3.942;2023-08-12T03:42:59;21.70;99.90
9223;DHT22;7557;51.698;3.942;2023-08-12T03:45:26;21.70;99.90
9223;DHT22;7557;51.698;3.942;2023-08-12T03:47:54;21.70;99.90
9223;DHT22;7557;51.698;3.942;2023-08-12T03:50:21;21.80;99.90
9223;DHT22;7557;51.698;3.942;2023-08-12T03:52:49;21.80;99.90
9223;DHT22;7557;51.698;3.942;2023-08-12T03:55:16;21.80;99.90
9223;DHT22;7557;51.698;3.942;2023-08-12T03:57:45;21.80;99.90
9223;DHT22;7557;51.698;3.942;2023-08-12T04:00:13;21.80;99.90
9223;DHT22;7557;51.698;3.942;2023-08-12T04:02:41;21.80;99.90
9223;DHT22;7557;51.698;3.942;2023-08-12T04:05:09;21.80;99.90
9223;DHT22;7557;51.698;3.942;2023-08-12T04:07:36;21.70;99.90
9223;DHT22;7557;51.698;3.942;2023-08-12T04:10:04;21.80;99.90
9223;DHT22;7557;51.698;3.942;2023-08-12T04:12:32;21.70;99.90
9223;DHT22;7557;51.698;3.942;2023-08-12T04:15:01;21.70;99.90
9223;DHT22;7557;51.698;3.942;2023-08-12T04:17:31;21.70;99.90
9223;DHT22;7557;51.698;3.942;2023-08-12T04:19:58;21.70;99.90
9223;DHT22;7557;51.698;3.942;2023-08-12T04:22:26;21.60;99.90
9223;DHT22;7557;51.698;3.942;2023-08-12T04:24:54;21.60;99.90
9223;DHT22;7557;51.698;3.942;2023-08-12T04:27:23;21.70;99.90
9223;DHT22;7557;51.698;3.942;2023-08-12T04:29:51;21.70;99.90
9223;DHT22;7557;51.698;3.942;2023-08-12T04:32:20;21.60;99.90
9223;DHT22;7557;51.698;3.942;2023-08-12T04:34:48;21.60;99.90
9223;DHT22;7557;51.698;3.942;2023-08-12T04:37:15;21.70;99.90
9223;DHT22;7557;51.698;3.942;2023-08-12T04:39:43;21.70;99.90
9223;DHT22;7557;51.698;3.942;2023-08-12T04:42:11;21.70;99.90
9223;DHT22;7557;51.698;3.942;2023-08-12T04:44:38;21.70;99.90
9223;DHT22;7557;51.698;3.942;2023-08-12T04:47:06;21.70;99.90
9223;DHT22;7557;51.698;3.942;2023-08-12T04:49:35;21.70;99.90
9223;DHT22;7557;51.698;3.942;2023-08-12T04:52:02;21.60;99.90
9223;DHT22;7557;51.698;3.942;2023-08-12T04:54:30;21.60;99.90
9223;DHT22;7557;51.698;3.942;2023-08-12T04:56:57;21.60;99.90
9223;DHT22;7557;51.698;3.942;2023-08-12T04:59:25;21.60;99.90
9223;DHT22;7557;51.698;3.942;2023-08-12T05:01:52;21.60;99.90
9223;DHT22;7557;51.698;3.942;2023-08-12T05:04:19;21.60;99.90
9223;DHT22;7557;51.698;3.942;2023-08-12T05:06:49;21.60;99.90
9223;DHT22;7557;51.698;3.942;2023-08-12T05:09:16;21.60;99.90
9223;DHT22;7557;51.698;3.942;2023-08-12T05:11:43;21.60;99.90
9223;DHT22;7557;51.698;3.942;2023-08-12T05:14:11;21.60;99.90
9223;DHT22;7557;51.698;3.942;2023-08-12T05:16:38;21.60;99.90
9223;DHT22;7557;51.698;3.942;2023-08-12T05:19:05;21.60;99.90
9223;DHT22;7557;51.698;3.942;2023-08-12T05:21:33;21.60;99.90
9223;DHT22;7557;51.698;3.942;2023-08-12T05:24:02;21.50;99.90
9223;DHT22;7557;51.698;3.942;2023-08-12T05:26:30;21.50;99.90
9223;DHT22;7557;51.698;3.942;2023-08-12T05:28:57;21.50;99.90
9223;DHT22;7557;51.698;3.942;2023-08-12T05:31:25;21.50;99.90
9223;DHT22;7557;51.698;3.942;2023-08-12T05:33:53;21.50;99.90
9223;DHT22;7557;51.698;3.942;2023-08-12T05:36:20;21.50;99.90
9223;DHT22;7557;51.698;3.942;2023-08-12T05:38:47;21.50;99.90
9223;DHT22;7557;51.698;3.942;2023-08-12T05:41:16;21.50;99.90
9223;DHT22;7557;51.698;3.942;2023-08-12T05:43:43;21.50;99.90
9223;DHT22;7557;51.698;3.942;2023-08-12T05:46:11;21.50;99.90
9223;DHT22;7557;51.698;3.942;2023-08-12T05:48:38;21.50;99.90
9223;DHT22;7557;51.698;3.942;2023-08-12T05:51:06;21.50;99.90
9223;DHT22;7557;51.698;3.942;2023-08-12T05:53:33;21.50;99.90
9223;DHT22;7557;51.698;3.942;2023-08-12T05:56:01;21.60;99.90
9223;DHT22;7557;51.698;3.942;2023-08-12T05:58:30;21.60;99.90
9223;DHT22;7557;51.698;3.942;2023-08-12T06:00:58;21.60;99.90
9223;DHT22;7557;51.698;3.942;2023-08-12T06:03:25;21.60;99.90
9223;DHT22;7557;51.698;3.942;2023-08-12T06:05:53;21.30;99.90
9223;DHT22;7557;51.698;3.942;2023-08-12T06:08:20;21.10;99.90
9223;DHT22;7557;51.698;3.942;2023-08-12T06:10:47;20.90;99.90
9223;DHT22;7557;51.698;3.942;2023-08-12T06:13:15;20.70;99.90
9223;DHT22;7557;51.698;3.942;2023-08-12T06:15:43;20.50;99.90
9223;DHT22;7557;51.698;3.942;2023-08-12T06:18:11;20.30;99.90
9223;DHT22;7557;51.698;3.942;2023-08-12T06:20:38;20.10;99.90
9223;DHT22;7557;51.698;3.942;2023-08-12T06:23:06;19.90;99.90
9223;DHT22;7557;51.698;3.942;2023-08-12T06:25:33;19.70;99.90
9223;DHT22;7557;51.698;3.942;2023-08-12T06:28:02;19.50;99.90
9223;DHT22;7557;51.698;3.942;2023-08-12T06:30:30;19.40;99.90
9223;DHT22;7557;51.698;3.942;2023-08-12T06:32:59;19.30;99.90
9223;DHT22;7557;51.698;3.942;2023-08-12T06:35:26;19.20;99.90
9223;DHT22;7557;51.698;3.942;2023-08-12T06:37:53;19.20;99.90
9223;DHT22;7557;51.698;3.942;2023-08-12T06:40:21;19.20;99.90
9223;DHT22;7557;51.698;3.942;2023-08-12T06:42:49;19.20;99.90
9223;DHT22;7557;51.698;3.942;2023-08-12T06:45:16;19.30;99.90
9223;DHT22;7557;51.698;3.942;2023-08-12T06:47:43;19.40;99.90
9223;DHT22;7557;51.698;3.942;2023-08-12T06:50:12;19.40;99.90
9223;DHT22;7557;51.698;3.942;2023-08-12T06:52:40;19.60;99.90
9223;DHT22;7557;51.698;3.942;2023-08-12T06:55:07;19.60;99.90
9223;DHT22;7557;51.698;3.942;2023-08-12T06:57:35;19.80;99.90
9223;DHT22;7557;51.698;3.942;2023-08-12T07:00:02;19.90;99.90
9223;DHT22;7557;51.698;3.942;2023-08-12T07:02:30;20.00;99.90
9223;DHT22;7557;51.698;3.942;2023-08-12T07:04:58;20.10;99.90
9223;DHT22;7557;51.698;3.942;2023-08-12T07:07:27;20.30;99.90
9223;DHT22;7557;51.698;3.942;2023-08-12T07:09:54;20.40;99.90
9223;DHT22;7557;51.698;3.942;2023-08-12T07:12:22;20.40;99.90
9223;DHT22;7557;51.698;3.942;2023-08-12T07:14:49;20.60;99.90
9223;DHT22;7557;51.698;3.942;2023-08-12T07:17:17;20.60;99.90
9223;DHT22;7557;51.698;3.942;2023-08-12T07:19:44;20.70;99.90
9223;DHT22;7557;51.698;3.942;2023-08-12T07:22:11;20.70;99.90
9223;DHT22;7557;51.698;3.942;2023-08-12T07:24:41;20.70;99.90
9223;DHT22;7557;51.698;3.942;2023-08-12T07:27:08;20.70;99.90
9223;DHT22;7557;51.698;3.942;2023-08-12T07:29:36;20.70;99.90
9223;DHT22;7557;51.698;3.942;2023-08-12T07:32:04;20.80;99.90
9223;DHT22;7557;51.698;3.942;2023-08-12T07:34:31;20.80;99.90
9223;DHT22;7557;51.698;3.942;2023-08-12T07:36:59;20.80;99.90
9223;DHT22;7557;51.698;3.942;2023-08-12T07:39:26;20.80;99.90
9223;DHT22;7557;51.698;3.942;2023-08-12T07:41:55;20.70;99.90
9223;DHT22;7557;51.698;3.942;2023-08-12T07:44:22;20.60;99.90
9223;DHT22;7557;51.698;3.942;2023-08-12T07:46:53;20.60;99.90
9223;DHT22;7557;51.698;3.942;2023-08-12T07:49:21;20.60;99.90
9223;DHT22;7557;51.698;3.942;2023-08-12T07:51:48;20.60;99.90
9223;DHT22;7557;51.698;3.942;2023-08-12T07:54:16;20.70;99.90
9223;DHT22;7557;51.698;3.942;2023-08-12T07:56:43;20.70;99.90
9223;DHT22;7557;51.698;3.942;2023-08-12T07:59:13;20.70;99.90
9223;DHT22;7557;51.698;3.942;2023-08-12T08:01:40;20.70;99.90
9223;DHT22;7557;51.698;3.942;2023-08-12T08:04:07;20.60;99.90
9223;DHT22;7557;51.698;3.942;2023-08-12T08:06:34;20.70;99.90
9223;DHT22;7557;51.698;3.942;2023-08-12T08:09:02;20.70;99.90
9223;DHT22;7557;51.698;3.942;2023-08-12T08:11:30;20.80;99.90
9223;DHT22;7557;51.698;3.942;2023-08-12T08:13:58;20.90;99.90
9223;DHT22;7557;51.698;3.942;2023-08-12T08:16:27;21.00;99.90
9223;DHT22;7557;51.698;3.942;2023-08-12T08:18:54;21.10;99.90
9223;DHT22;7557;51.698;3.942;2023-08-12T08:21:21;21.10;99.90
9223;DHT22;7557;51.698;3.942;2023-08-12T08:23:49;21.10;99.90
9223;DHT22;7557;51.698;3.942;2023-08-12T08:26:16;21.20;99.90
9223;DHT22;7557;51.698;3.942;2023-08-12T08:28:44;21.30;99.90
9223;DHT22;7557;51.698;3.942;2023-08-12T08:31:11;21.60;99.90
9223;DHT22;7557;51.698;3.942;2023-08-12T08:33:41;21.80;99.90
9223;DHT22;7557;51.698;3.942;2023-08-12T08:36:08;21.90;99.90
9223;DHT22;7557;51.698;3.942;2023-08-12T08:38:36;21.90;99.90
9223;DHT22;7557;51.698;3.942;2023-08-12T08:41:06;22.00;99.90
9223;DHT22;7557;51.698;3.942;2023-08-12T08:43:37;22.00;99.90
9223;DHT22;7557;51.698;3.942;2023-08-12T08:46:05;21.90;99.90
9223;DHT22;7557;51.698;3.942;2023-08-12T08:48:33;21.90;99.90
9223;DHT22;7557;51.698;3.942;2023-08-12T08:51:03;21.80;99.90
9223;DHT22;7557;51.698;3.942;2023-08-12T08:53:30;21.80;99.90
9223;DHT22;7557;51.698;3.942;2023-08-12T08:55:58;21.80;99.90
9223;DHT22;7557;51.698;3.942;2023-08-12T08:58:26;21.80;99.90
9223;DHT22;7557;51.698;3.942;2023-08-12T09:00:54;21.90;99.90
9223;DHT22;7557;51.698;3.942;2023-08-12T09:03:25;21.80;99.90
9223;DHT22;7557;51.698;3.942;2023-08-12T09:05:53;21.70;99.90
9223;DHT22;7557;51.698;3.942;2023-08-12T09:08:24;21.70;99.90
9223;DHT22;7557;51.698;3.942;2023-08-12T09:10:53;21.70;99.90
9223;DHT22;7557;51.698;3.942;2023-08-12T09:13:21;21.70;99.90
9223;DHT22;7557;51.698;3.942;2023-08-12T09:15:49;21.60;99.90
9223;DHT22;7557;51.698;3.942;2023-08-12T09:18:17;21.60;99.90
9223;DHT22;7557;51.698;3.942;2023-08-12T09:20:44;21.70;99.90
9223;DHT22;7557;51.698;3.942;2023-08-12T09:23:14;21.70;99.90
9223;DHT22;7557;51.698;3.942;2023-08-12T09:25:44;21.80;99.90
9223;DHT22;7557;51.698;3.942;2023-08-12T09:28:15;21.70;99.90
9223;DHT22;7557;51.698;3.942;2023-08-12T09:30:42;21.80;99.90
9223;DHT22;7557;51.698;3.942;2023-08-12T09:33:10;21.90;99.90
9223;DHT22;7557;51.698;3.942;2023-08-12T09:35:39;22.10;99.90
9223;DHT22;7557;51.698;3.942;2023-08-12T09:38:10;22.20;99.90
9223;DHT22;7557;51.698;3.942;2023-08-12T09:40:38;22.20;99.90
9223;DHT22;7557;51.698;3.942;2023-08-12T09:43:07;22.20;99.90
9223;DHT22;7557;51.698;3.942;2023-08-12T09:45:35;22.30;99.90
9223;DHT22;7557;51.698;3.942;2023-08-12T09:48:02;22.40;99.90
9223;DHT22;7557;51.698;3.942;2023-08-12T09:50:30;22.50;99.90
9223;DHT22;7557;51.698;3.942;2023-08-12T09:52:57;22.50;99.90
9223;DHT22;7557;51.698;3.942;2023-08-12T09:55:25;22.40;99.90
9223;DHT22;7557;51.698;3.942;2023-08-12T09:57:54;22.50;99.90
9223;DHT22;7557;51.698;3.942;2023-08-12T10:00:24;22.70;99.90
9223;DHT22;7557;51.698;3.942;2023-08-12T10:02:52;22.90;99.90
9223;DHT22;7557;51.698;3.942;2023-08-12T10:05:22;23.20;99.90
9223;DHT22;7557;51.698;3.942;2023-08-12T10:07:53;23.00;99.90
9223;DHT22;7557;51.698;3.942;2023-08-12T10:10:21;22.90;99.90
9223;DHT22;7557;51.698;3.942;2023-08-12T10:12:50;22.80;99.90
9223;DHT22;7557;51.698;3.942;2023-08-12T10:15:19;22.80;99.90
9223;DHT22;7557;51.698;3.942;2023-08-12T10:17:49;22.70;99.90
9223;DHT22;7557;51.698;3.942;2023-08-12T10:20:21;22.80;99.90
9223;DHT22;7557;51.698;3.942;2023-08-12T10:22:49;22.90;99.90
9223;DHT22;7557;51.698;3.942;2023-08-12T10:25:18;23.00;99.90
9223;DHT22;7557;51.698;3.942;2023-08-12T10:27:47;23.20;99.90
9223;DHT22;7557;51.698;3.942;2023-08-12T10:30:15;23.20;99.90
9223;DHT22;7557;51.698;3.942;2023-08-12T10:32:42;23.10;99.90
9223;DHT22;7557;51.698;3.942;2023-08-12T10:35:11;23.00;99.90
9223;DHT22;7557;51.698;3.942;2023-08-12T10:37:39;22.80;99.90
9223;DHT22;7557;51.698;3.942;2023-08-12T10:40:19;22.80;99.90
9223;DHT22;7557;51.698;3.942;2023-08-12T10:42:48;22.90;99.90
9223;DHT22;7557;51.698;3.942;2023-08-12T10:45:17;23.10;99.90
9223;DHT22;7557;51.698;3.942;2023-08-12T10:47:49;23.30;99.90
9223;DHT22;7557;51.698;3.942;2023-08-12T10:50:21;23.30;99.90
9223;DHT22;7557;51.698;3.942;2023-08-12T10:52:52;23.30;99.90
9223;DHT22;7557;51.698;3.942;2023-08-12T10:55:20;23.50;99.90
9223;DHT22;7557;51.698;3.942;2023-08-12T10:57:48;23.50;99.90
9223;DHT22;7557;51.698;3.942;2023-08-12T11:00:16;23.50;99.90
9223;DHT22;7557;51.698;3.942;2023-08-12T11:02:45;23.50;99.90
9223;DHT22;7557;51.698;3.942;2023-08-12T11:05:13;23.60;99.90
9223;DHT22;7557;51.698;3.942;2023-08-12T11:07:43;23.50;99.90
9223;DHT22;7557;51.698;3.942;2023-08-12T11:10:12;23.30;99.90
9223;DHT22;7557;51.698;3.942;2023-08-12T11:12:41;23.30;99.90
9223;DHT22;7557;51.698;3.942;2023-08-12T11:15:10;23.20;99.90
9223;DHT22;7557;51.698;3.942;2023-08-12T11:17:39;23.20;99.90
9223;DHT22;7557;51.698;3.942;2023-08-12T11:20:08;23.30;99.90
9223;DHT22;7557;51.698;3.942;2023-08-12T11:22:38;23.50;99.90
9223;DHT22;7557;51.698;3.942;2023-08-12T11:25:08;23.50;99.90
9223;DHT22;7557;51.698;3.942;2023-08-12T11:27:38;23.50;99.90
9223;DHT22;7557;51.698;3.942;2023-08-12T11:30:07;23.50;99.90
9223;DHT22;7557;51.698;3.942;2023-08-12T11:32:36;23.60;99.90
9223;DHT22;7557;51.698;3.942;2023-08-12T11:35:05;23.70;99.90
9223;DHT22;7557;51.698;3.942;2023-08-12T11:37:34;23.90;99.90
9223;DHT22;7557;51.698;3.942;2023-08-12T11:40:03;24.00;99.90
9223;DHT22;7557;51.698;3.942;2023-08-12T11:42:32;23.70;99.90
9223;DHT22;7557;51.698;3.942;2023-08-12T11:44:59;23.50;99.90
9223;DHT22;7557;51.698;3.942;2023-08-12T11:47:27;23.60;99.90
9223;DHT22;7557;51.698;3.942;2023-08-12T11:49:54;23.60;99.90
9223;DHT22;7557;51.698;3.942;2023-08-12T11:52:23;23.40;99.90
9223;DHT22;7557;51.698;3.942;2023-08-12T11:54:51;23.40;99.90
9223;DHT22;7557;51.698;3.942;2023-08-12T11:57:19;23.30;99.90
9223;DHT22;7557;51.698;3.942;2023-08-12T11:59:51;23.10;99.90
9223;DHT22;7557;51.698;3.942;2023-08-12T12:02:18;23.20;99.90
9223;DHT22;7557;51.698;3.942;2023-08-12T12:04:45;23.30;99.90
9223;DHT22;7557;51.698;3.942;2023-08-12T12:07:19;23.40;99.90
9223;DHT22;7557;51.698;3.942;2023-08-12T12:09:49;23.60;99.90
9223;DHT22;7557;51.698;3.942;2023-08-12T12:12:17;23.60;99.90
9223;DHT22;7557;51.698;3.942;2023-08-12T12:14:47;23.60;99.90
9223;DHT22;7557;51.698;3.942;2023-08-12T12:17:15;23.60;99.90
9223;DHT22;7557;51.698;3.942;2023-08-12T12:19:43;23.50;99.90
9223;DHT22;7557;51.698;3.942;2023-08-12T12:22:11;23.30;99.90
9223;DHT22;7557;51.698;3.942;2023-08-12T12:24:45;23.10;99.90
9223;DHT22;7557;51.698;3.942;2023-08-12T12:27:13;23.00;99.90
9223;DHT22;7557;51.698;3.942;2023-08-12T12:29:41;22.80;99.90
9223;DHT22;7557;51.698;3.942;2023-08-12T12:32:08;22.60;99.90
9223;DHT22;7557;51.698;3.942;2023-08-12T12:34:38;22.50;99.90
9223;DHT22;7557;51.698;3.942;2023-08-12T12:37:06;22.50;99.90
9223;DHT22;7557;51.698;3.942;2023-08-12T12:39:33;22.50;99.90
9223;DHT22;7557;51.698;3.942;2023-08-12T12:42:01;22.60;99.90
9223;DHT22;7557;51.698;3.942;2023-08-12T12:44:28;22.70;99.90
9223;DHT22;7557;51.698;3.942;2023-08-12T12:46:56;22.80;99.90
9223;DHT22;7557;51.698;3.942;2023-08-12T12:49:26;22.80;99.90
9223;DHT22;7557;51.698;3.942;2023-08-12T12:51:56;22.70;99.90
9223;DHT22;7557;51.698;3.942;2023-08-12T12:54:23;22.80;99.90
9223;DHT22;7557;51.698;3.942;2023-08-12T12:56:51;23.00;99.90
9223;DHT22;7557;51.698;3.942;2023-08-12T12:59:18;23.00;99.90
9223;DHT22;7557;51.698;3.942;2023-08-12T13:01:45;22.90;99.90
9223;DHT22;7557;51.698;3.942;2023-08-12T13:04:13;22.80;99.90
9223;DHT22;7557;51.698;3.942;2023-08-12T13:06:40;22.70;99.90
9223;DHT22;7557;51.698;3.942;2023-08-12T13:09:10;22.70;99.90
9223;DHT22;7557;51.698;3.942;2023-08-12T13:11:37;22.80;99.90
9223;DHT22;7557;51.698;3.942;2023-08-12T13:14:05;22.80;99.90
9223;DHT22;7557;51.698;3.942;2023-08-12T13:16:32;22.70;99.90
9223;DHT22;7557;51.698;3.942;2023-08-12T13:19:00;22.70;99.90
9223;DHT22;7557;51.698;3.942;2023-08-12T13:21:28;22.80;99.90
9223;DHT22;7557;51.698;3.942;2023-08-12T13:23:55;22.90;99.90
9223;DHT22;7557;51.698;3.942;2023-08-12T13:26:24;22.90;99.90
9223;DHT22;7557;51.698;3.942;2023-08-12T13:28:52;22.90;99.90
9223;DHT22;7557;51.698;3.942;2023-08-12T13:31:20;22.80;99.90
9223;DHT22;7557;51.698;3.942;2023-08-12T13:33:48;22.70;99.90
9223;DHT22;7557;51.698;3.942;2023-08-12T13:36:15;22.50;99.90
9223;DHT22;7557;51.698;3.942;2023-08-12T13:38:43;22.50;99.90
9223;DHT22;7557;51.698;3.942;2023-08-12T13:41:10;22.40;99.90
9223;DHT22;7557;51.698;3.942;2023-08-12T13:43:39;22.40;99.90
9223;DHT22;7557;51.698;3.942;2023-08-12T13:46:06;22.40;99.90
9223;DHT22;7557;51.698;3.942;2023-08-12T13:48:34;22.30;99.90
9223;DHT22;7557;51.698;3.942;2023-08-12T13:51:01;22.20;99.90
9223;DHT22;7557;51.698;3.942;2023-08-12T13:53:29;22.20;99.90
9223;DHT22;7557;51.698;3.942;2023-08-12T13:55:57;22.30;99.90
9223;DHT22;7557;51.698;3.942;2023-08-12T13:58:24;22.40;99.90
9223;DHT22;7557;51.698;3.942;2023-08-12T14:00:53;22.50;99.90
9223;DHT22;7557;51.698;3.942;2023-08-12T14:03:21;22.50;99.90
9223;DHT22;7557;51.698;3.942;2023-08-12T14:05:48;22.50;99.90
9223;DHT22;7557;51.698;3.942;2023-08-12T14:08:16;22.50;99.90
9223;DHT22;7557;51.698;3.942;2023-08-12T14:10:44;22.40;99.90
9223;DHT22;7557;51.698;3.942;2023-08-12T14:13:12;22.40;99.90
9223;DHT22;7557;51.698;3.942;2023-08-12T14:15:40;22.40;99.90
9223;DHT22;7557;51.698;3.942;2023-08-12T14:18:09;22.50;99.90
9223;DHT22;7557;51.698;3.942;2023-08-12T14:20:37;22.40;99.90
9223;DHT22;7557;51.698;3.942;2023-08-12T14:23:04;22.40;99.90
9223;DHT22;7557;51.698;3.942;2023-08-12T14:25:31;22.30;99.90
9223;DHT22;7557;51.698;3.942;2023-08-12T14:27:59;22.30;99.90
9223;DHT22;7557;51.698;3.942;2023-08-12T14:30:26;22.30;99.90
9223;DHT22;7557;51.698;3.942;2023-08-12T14:32:54;22.20;99.90
9223;DHT22;7557;51.698;3.942;2023-08-12T14:35:24;22.30;99.90
9223;DHT22;7557;51.698;3.942;2023-08-12T14:37:51;22.30;99.90
9223;DHT22;7557;51.698;3.942;2023-08-12T14:40:19;22.40;99.90
9223;DHT22;7557;51.698;3.942;2023-08-12T14:42:46;22.40;99.90
9223;DHT22;7557;51.698;3.942;2023-08-12T14:45:14;22.40;99.90
9223;DHT22;7557;51.698;3.942;2023-08-12T14:47:41;22.40;99.90
9223;DHT22;7557;51.698;3.942;2023-08-12T14:50:09;22.40;99.90
9223;DHT22;7557;51.698;3.942;2023-08-12T14:52:38;22.40;99.90
9223;DHT22;7557;51.698;3.942;2023-08-12T14:55:06;22.40;99.90
9223;DHT22;7557;51.698;3.942;2023-08-12T14:57:34;22.30;99.90
9223;DHT22;7557;51.698;3.942;2023-08-12T15:00:02;22.20;99.90
9223;DHT22;7557;51.698;3.942;2023-08-12T15:02:32;22.30;99.90
9223;DHT22;7557;51.698;3.942;2023-08-12T15:05:00;22.40;99.90
9223;DHT22;7557;51.698;3.942;2023-08-12T15:07:27;22.30;99.90
9223;DHT22;7557;51.698;3.942;2023-08-12T15:09:56;22.50;99.90
9223;DHT22;7557;51.698;3.942;2023-08-12T15:12:25;22.60;99.90
9223;DHT22;7557;51.698;3.942;2023-08-12T15:14:53;22.70;99.90
9223;DHT22;7557;51.698;3.942;2023-08-12T15:17:20;22.80;99.90
9223;DHT22;7557;51.698;3.942;2023-08-12T15:19:47;22.90;99.90
9223;DHT22;7557;51.698;3.942;2023-08-12T15:22:15;22.90;99.90
9223;DHT22;7557;51.698;3.942;2023-08-12T15:24:42;22.90;99.90
9223;DHT22;7557;51.698;3.942;2023-08-12T15:27:11;22.90;99.90
9223;DHT22;7557;51.698;3.942;2023-08-12T15:29:39;22.90;99.90
9223;DHT22;7557;51.698;3.942;2023-08-12T15:32:06;23.00;99.90
9223;DHT22;7557;51.698;3.942;2023-08-12T15:34:33;23.00;99.90
9223;DHT22;7557;51.698;3.942;2023-08-12T15:37:01;23.00;99.90
9223;DHT22;7557;51.698;3.942;2023-08-12T15:39:29;23.00;99.90
9223;DHT22;7557;51.698;3.942;2023-08-12T15:41:57;23.00;99.90
9223;DHT22;7557;51.698;3.942;2023-08-12T15:44:26;23.00;99.90
9223;DHT22;7557;51.698;3.942;2023-08-12T15:46:53;23.10;99.90
9223;DHT22;7557;51.698;3.942;2023-08-12T15:49:20;23.10;99.90
9223;DHT22;7557;51.698;3.942;2023-08-12T15:51:48;23.20;99.90
9223;DHT22;7557;51.698;3.942;2023-08-12T15:54:15;23.30;99.90
9223;DHT22;7557;51.698;3.942;2023-08-12T15:56:44;23.40;99.90
9223;DHT22;7557;51.698;3.942;2023-08-12T15:59:11;23.50;99.90
9223;DHT22;7557;51.698;3.942;2023-08-12T16:01:39;23.60;99.90
9223;DHT22;7557;51.698;3.942;2023-08-12T16:04:07;23.60;99.90
9223;DHT22;7557;51.698;3.942;2023-08-12T16:06:34;23.60;99.90
9223;DHT22;7557;51.698;3.942;2023-08-12T16:09:02;23.70;99.90
9223;DHT22;7557;51.698;3.942;2023-08-12T16:11:29;23.60;99.90